Time;durP1;ratioP1;P1;durP2;ratioP2;P2;SDS_P1;SDS_P2;PMS_P1;PMS_P2;Temp;Humidity;BMP_temperature;BMP_pressure;BME280_temperature;BME280_humidity;BME280_pressure;Samples;Min_cycle;Max_cycle;Signal;HPM_P1;HPM_P2
2023/09/16 00:05:12;;;;;;;7.27;4.23;;;17.90;93.40;;;;;;20917973;28;20210;-67
2023/09/16 00:15:14;;;;;;;6.30;3.70;;;17.80;93.60;;;;;;20917799;28;20750;-68
2023/09/16 00:25:16;;;;;;;7.53;4.03;;;17.80;93.80;;;;;;20916245;28;20205;-68
2023/09/16 00:35:18;;;;;;;5.27;4.10;;;17.70;93.70;;;;;;20915314;28;20225;-66
2023/09/16 00:45:20;;;;;;;5.93;4.70;;;17.70;93.70;;;;;;20915007;28;20210;-66
2023/09/16 00:55:23;;;;;;;4.47;3.97;;;17.50;94.20;;;;;;20913858;28;20326;-68
2023/09/16 01:05:25;;;;;;;5.00;3.63;;;17.50;94.00;;;;;;20912762;28;20550;-67
2023/09/16 01:15:33;;;;;;;5.47;3.90;;;17.50;94.00;;;;;;20913177;28;20220;-67
2023/09/16 01:25:34;;;;;;;5.13;3.80;;;17.40;94.20;;;;;;20912457;28;20250;-67
2023/09/16 01:35:39;;;;;;;6.17;4.00;;;17.30;94.30;;;;;;20912135;28;20703;-67
2023/09/16 01:45:42;;;;;;;6.00;3.80;;;17.20;94.50;;;;;;20911896;28;20212;-66
2023/09/16 01:55:44;;;;;;;6.47;4.27;;;17.10;94.70;;;;;;20911052;28;20338;-66
2023/09/16 02:05:46;;;;;;;8.10;4.20;;;17.00;94.90;;;;;;20910981;28;20210;-67
2023/09/16 02:15:47;;;;;;;5.23;4.20;;;17.00;95.10;;;;;;20910781;28;20232;-65
2023/09/16 02:25:49;;;;;;;5.40;4.13;;;17.00;95.10;;;;;;20925582;28;20211;-66
2023/09/16 02:35:51;;;;;;;6.17;3.60;;;16.90;95.40;;;;;;20924853;28;20228;-66
2023/09/16 02:45:56;;;;;;;4.53;3.70;;;16.80;95.60;;;;;;20924332;28;20300;-65
2023/09/16 02:55:58;;;;;;;4.37;3.70;;;16.70;95.80;;;;;;20923172;28;20328;-66
2023/09/16 03:05:59;;;;;;;5.50;3.73;;;16.70;96.00;;;;;;20922688;28;20305;-67
2023/09/16 03:16:16;;;;;;;5.57;4.47;;;16.60;96.10;;;;;;20867449;28;20315;-67
2023/09/16 03:26:18;;;;;;;7.27;4.10;;;16.60;96.20;;;;;;20838487;28;20576;-70
2023/09/16 03:36:22;;;;;;;4.33;3.77;;;16.60;96.40;;;;;;20837148;28;20660;-69
2023/09/16 03:46:24;;;;;;;5.37;3.93;;;16.60;96.70;;;;;;20837785;28;20269;-68
2023/09/16 03:56:25;;;;;;;7.33;4.53;;;16.70;96.70;;;;;;20835964;28;20248;-68
2023/09/16 04:06:27;;;;;;;8.07;3.97;;;16.50;96.80;;;;;;20835432;28;20248;-67
2023/09/16 04:16:29;;;;;;;4.73;3.80;;;16.40;96.80;;;;;;20834798;28;20781;-67
2023/09/16 04:26:31;;;;;;;4.33;3.93;;;16.30;97.00;;;;;;20834120;28;20212;-68
2023/09/16 04:36:32;;;;;;;4.30;3.90;;;16.20;97.00;;;;;;20833328;28;20323;-67
2023/09/16 04:46:34;;;;;;;5.70;3.90;;;16.20;97.20;;;;;;20832629;28;20733;-66
2023/09/16 04:56:36;;;;;;;5.83;4.40;;;16.20;97.40;;;;;;20831329;28;20264;-66
2023/09/16 05:06:38;;;;;;;4.77;4.00;;;16.10;97.30;;;;;;20831082;28;20676;-66
2023/09/16 05:16:40;;;;;;;6.57;3.83;;;16.10;97.50;;;;;;20830739;28;20228;-69
2023/09/16 05:26:42;;;;;;;6.20;3.83;;;16.20;97.40;;;;;;20830193;28;20204;-68
2023/09/16 05:36:43;;;;;;;5.77;4.10;;;16.20;97.40;;;;;;20829672;28;20323;-68
2023/09/16 05:46:45;;;;;;;4.73;3.90;;;16.30;97.30;;;;;;20829361;28;20208;-67
2023/09/16 05:56:49;;;;;;;9.00;4.57;;;16.20;97.30;;;;;;20837617;28;20279;-68
2023/09/16 06:06:50;;;;;;;6.10;4.27;;;16.20;97.50;;;;;;20844545;28;20209;-71
2023/09/16 06:16:52;;;;;;;4.97;4.47;;;16.60;97.70;;;;;;20857977;28;20284;-71
2023/09/16 06:26:54;;;;;;;8.60;4.77;;;;;;;;;;20922527;28;20212;-77
2023/09/16 06:36:59;;;;;;;8.13;5.13;;;;;;;;;;20924826;28;20331;-75
2023/09/16 06:47:01;;;;;;;8.20;5.50;;;;;;;;;;20923081;28;20652;-80
2023/09/16 06:59:39;;;;;;;8.30;5.63;;;17.40;97.30;;;;;;20983752;28;20570;-64
2023/09/16 07:09:40;;;;;;;8.23;5.27;;;17.60;97.20;;;;;;20984230;28;20214;-69
2023/09/16 07:19:42;;;;;;;6.63;5.00;;;17.90;97.00;;;;;;20982839;28;20216;-68
2023/09/16 07:29:44;;;;;;;6.33;4.63;;;18.30;96.60;;;;;;20980904;28;20306;-68
2023/09/16 07:39:47;;;;;;;8.33;4.67;;;18.60;96.10;;;;;;20981230;28;20676;-70
2023/09/16 07:49:48;;;;;;;15.17;5.67;;;19.00;95.60;;;;;;20979897;28;20245;-69
2023/09/16 07:59:51;;;;;;;9.53;4.73;;;;;;;;;;20979705;28;20249;-69
2023/09/16 08:09:53;;;;;;;9.87;4.90;;;;;;;;;;20930014;28;20212;-71
2023/09/16 08:19:54;;;;;;;8.90;4.60;;;19.30;95.10;;;;;;20923132;28;20216;-66
2023/09/16 08:29:56;;;;;;;14.43;5.03;;;20.30;93.70;;;;;;20922520;28;20210;-67
2023/09/16 08:39:58;;;;;;;6.93;4.20;;;20.50;93.20;;;;;;20922495;28;20220;-68
2023/09/16 08:50:06;;;;;;;5.50;3.80;;;20.80;92.80;;;;;;20920709;28;20232;-69
2023/09/16 09:00:09;;;;;;;5.90;5.07;;;21.00;92.10;;;;;;20919943;28;20204;-69
2023/09/16 09:10:11;;;;;;;5.70;3.83;;;21.30;91.80;;;;;;20918596;28;20260;-69
2023/09/16 09:20:21;;;;;;;6.47;3.63;;;21.60;91.30;;;;;;20917429;28;20553;-69
2023/09/16 09:30:31;;;;;;;5.57;4.30;;;21.80;91.00;;;;;;20917836;28;20270;-69
2023/09/16 09:40:33;;;;;;;8.77;4.90;;;21.90;90.60;;;;;;20916685;28;20571;-67
2023/09/16 09:50:35;;;;;;;4.30;3.90;;;22.10;90.40;;;;;;20915381;28;20278;-67
2023/09/16 10:00:49;;;;;;;4.40;4.00;;;22.30;90.10;;;;;;20915688;28;20212;-66
2023/09/16 10:10:52;;;;;;;7.00;4.10;;;22.50;89.40;;;;;;20914381;28;20326;-67
2023/09/16 10:20:55;;;;;;;4.57;3.93;;;22.70;88.60;;;;;;20914124;28;20222;-67
2023/09/16 10:30:56;;;;;;;7.10;4.00;;;22.90;88.00;;;;;;20913693;28;20243;-67
2023/09/16 10:40:58;;;;;;;7.67;4.50;;;23.00;87.20;;;;;;20911930;28;20204;-65
2023/09/16 10:51:01;;;;;;;4.70;3.90;;;;;;;;;;20912077;28;20330;-63
2023/09/16 11:01:05;;;;;;;4.97;3.83;;;;;;;;;;20911809;28;20298;-64
2023/09/16 11:11:08;;;;;;;17.53;3.90;;;;;;;;;;20911624;28;20657;-65
2023/09/16 11:21:12;;;;;;;6.67;4.30;;;;;;;;;;20911196;28;20310;-64
2023/09/16 11:31:13;;;;;;;8.70;3.90;;;23.20;86.70;;;;;;20910655;28;20621;-63
2023/09/16 11:41:18;;;;;;;6.70;3.77;;;24.10;83.30;;;;;;20918151;28;20307;-66
2023/09/16 11:51:23;;;;;;;14.13;3.60;;;;;;;;;;20925380;28;20706;-68
2023/09/16 12:01:29;;;;;;;5.30;3.60;;;;;;;;;;20924728;28;20294;-68
2023/09/16 12:11:32;;;;;;;3.37;3.00;;;;;;;;;;20924233;28;20236;-63
2023/09/16 12:21:34;;;;;;;4.47;3.20;;;;;;;;;;20923233;28;20286;-62
2023/09/16 12:31:36;;;;;;;3.83;3.22;;;;;;;;;;20922388;28;20651;-64
2023/09/16 12:41:39;;;;;;;5.57;3.00;;;;;;;;;;20921856;28;20574;-64
2023/09/16 12:51:41;;;;;;;4.10;3.10;;;;;;;;;;20871865;28;20246;-65
2023/09/16 13:01:43;;;;;;;4.87;2.90;;;;;;;;;;20904429;28;20204;-63
2023/09/16 13:11:50;;;;;;;3.83;2.95;;;;;;;;;;20837094;28;20239;-63
2023/09/16 13:21:52;;;;;;;2.75;2.53;;;;;;;;;;20876960;28;20699;-64
2023/09/16 13:32:00;;;;;;;3.13;2.60;;;;;;;;;;20917710;28;20239;-68
2023/09/16 13:42:03;;;;;;;3.15;2.42;;;;;;;;;;20917166;28;20247;-73
2023/09/16 13:52:05;;;;;;;3.80;2.35;;;;;;;;;;20905320;28;20331;-69
2023/09/16 14:02:08;;;;;;;3.90;2.38;;;;;;;;;;20832769;28;20217;-66
2023/09/16 14:12:11;;;;;;;2.50;2.30;;;;;;;;;;20848015;28;20657;-67
2023/09/16 14:22:13;;;;;;;3.47;2.70;;;;;;;;;;20831620;28;20299;-68
2023/09/16 14:32:15;;;;;;;2.97;2.53;;;;;;;;;;20830851;28;20236;-69
2023/09/16 14:42:17;;;;;;;2.42;2.17;;;;;;;;;;20831082;28;20208;-68
2023/09/16 14:52:19;;;;;;;2.80;2.20;;;24.40;82.20;;;;;;20840347;28;20346;-66
2023/09/16 15:02:21;;;;;;;2.60;2.20;;;30.40;52.60;;;;;;20912122;28;20561;-66
2023/09/16 15:12:23;;;;;;;3.10;1.85;;;;;;;;;;20913547;28;20691;-69
2023/09/16 15:22:25;;;;;;;3.00;2.35;;;;;;;;;;20927787;28;20254;-74
2023/09/16 15:32:27;;;;;;;5.90;2.45;;;32.20;49.10;;;;;;20927025;28;20232;-73
2023/09/16 15:42:32;;;;;;;9.25;2.60;;;28.80;51.90;;;;;;20926819;28;20216;-74
2023/09/16 15:52:33;;;;;;;3.50;2.47;;;28.10;53.10;;;;;;20912670;28;20271;-69
2023/09/16 16:02:37;;;;;;;2.70;2.30;;;27.70;53.70;;;;;;20842329;28;20300;-68
2023/09/16 16:12:42;;;;;;;3.55;2.38;;;;;;;;;;20841633;28;20732;-68
2023/09/16 16:22:44;;;;;;;5.15;2.53;;;;;;;;;;20840370;28;20619;-69
2023/09/16 16:32:46;;;;;;;3.73;2.50;;;;;;;;;;20839927;28;20327;-70
2023/09/16 16:42:48;;;;;;;2.47;2.27;;;;;;;;;;20839633;28;20208;-68
2023/09/16 16:52:50;;;;;;;4.20;2.50;;;27.40;54.10;;;;;;20853311;28;20327;-67
2023/09/16 17:02:52;;;;;;;9.47;2.60;;;26.20;57.70;;;;;;20920190;28;20304;-65
2023/09/16 17:12:53;;;;;;;9.00;3.27;;;26.00;58.60;;;;;;20919583;28;20266;-66
2023/09/16 17:22:55;;;;;;;5.33;3.27;;;25.80;59.70;;;;;;20918824;28;20210;-66
2023/09/16 17:32:57;;;;;;;4.60;4.03;;;25.50;60.90;;;;;;20917740;28;20279;-69
2023/09/16 17:42:59;;;;;;;5.30;3.90;;;25.30;62.10;;;;;;20916545;28;20212;-70
2023/09/16 17:53:01;;;;;;;5.70;3.33;;;25.20;63.40;;;;;;20899105;28;20237;-68
2023/09/16 18:03:03;;;;;;;4.67;3.50;;;25.00;64.50;;;;;;20832460;28;20205;-68
2023/09/16 18:13:05;;;;;;;7.63;4.53;;;24.90;65.40;;;;;;20831285;28;20279;-65
2023/09/16 18:23:08;;;;;;;6.37;4.07;;;24.70;65.90;;;;;;20831144;28;20204;-70
2023/09/16 18:33:10;;;;;;;11.10;5.80;;;24.50;67.10;;;;;;20830689;28;20238;-63
2023/09/16 18:43:11;;;;;;;11.37;3.80;;;24.50;68.00;;;;;;20830681;28;20213;-65
2023/09/16 18:53:13;;;;;;;4.53;3.80;;;24.30;69.00;;;;;;20846105;28;20235;-64
2023/09/16 19:03:15;;;;;;;10.03;4.43;;;24.20;69.80;;;;;;20906735;28;20674;-63
2023/09/16 19:13:18;;;;;;;5.67;3.40;;;24.10;70.50;;;;;;20911893;28;20745;-63
2023/09/16 19:23:19;;;;;;;6.90;3.60;;;23.90;71.40;;;;;;20911024;28;20204;-63
2023/09/16 19:33:23;;;;;;;23.37;4.23;;;23.80;72.20;;;;;;20910491;28;20264;-63
2023/09/16 19:43:25;;;;;;;7.00;4.13;;;23.60;73.30;;;;;;20910654;28;20237;-66
2023/09/16 19:53:26;;;;;;;8.67;5.00;;;23.40;74.20;;;;;;20889458;28;20727;-68
2023/09/16 20:03:28;;;;;;;12.70;4.73;;;23.20;75.10;;;;;;20895991;28;20242;-66
2023/09/16 20:13:30;;;;;;;10.77;4.10;;;23.10;76.10;;;;;;20924147;28;20661;-65
2023/09/16 20:23:32;;;;;;;5.80;4.10;;;23.00;76.90;;;;;;20923063;28;20651;-73
2023/09/16 20:33:34;;;;;;;5.93;3.67;;;22.80;77.90;;;;;;20922693;28;20470;-64
2023/09/16 20:43:35;;;;;;;6.80;3.90;;;22.60;78.70;;;;;;20922329;28;20294;-72
2023/09/16 20:53:37;;;;;;;8.83;4.00;;;22.50;80.00;;;;;;20920505;28;20695;-69
2023/09/16 21:03:40;;;;;;;7.07;3.77;;;22.50;81.00;;;;;;20920168;28;20211;-65
2023/09/16 21:13:42;;;;;;;5.53;3.93;;;22.20;82.00;;;;;;20920152;28;20749;-66
2023/09/16 21:23:44;;;;;;;5.67;4.20;;;22.20;82.80;;;;;;20917309;28;20204;-65
2023/09/16 21:33:46;;;;;;;5.57;3.97;;;22.10;83.90;;;;;;20917640;28;20246;-65
2023/09/16 21:43:48;;;;;;;7.43;4.70;;;22.00;84.80;;;;;;20917499;28;20228;-68
2023/09/16 21:53:50;;;;;;;8.13;4.03;;;21.90;85.80;;;;;;20914718;28;20243;-70
2023/09/16 22:03:52;;;;;;;4.23;3.60;;;21.80;86.80;;;;;;20915744;28;20706;-73
2023/09/16 22:13:54;;;;;;;6.00;4.00;;;21.80;87.70;;;;;;20913748;28;20258;-62
2023/09/16 22:23:59;;;;;;;7.17;3.80;;;21.50;88.90;;;;;;20912119;28;20203;-62
2023/09/16 22:34:02;;;;;;;6.40;4.40;;;21.50;90.00;;;;;;20913572;28;20234;-62
2023/09/16 22:44:04;;;;;;;5.87;4.27;;;21.30;90.50;;;;;;20913066;28;20203;-63
2023/09/16 22:54:06;;;;;;;7.30;4.30;;;21.20;91.40;;;;;;20912564;28;20268;-65
2023/09/16 23:04:08;;;;;;;7.03;4.00;;;21.10;91.50;;;;;;20912134;28;20214;-62
2023/09/16 23:14:10;;;;;;;6.63;3.90;;;21.10;92.00;;;;;;20911381;28;20285;-62
2023/09/16 23:24:12;;;;;;;4.20;3.80;;;21.00;92.30;;;;;;20910468;28;20247;-62
2023/09/16 23:34:13;;;;;;;8.37;4.20;;;20.90;92.70;;;;;;20913667;28;20322;-62
2023/09/16 23:44:15;;;;;;;6.97;4.50;;;20.90;93.00;;;;;;20926570;28;20601;-64
2023/09/16 23:54:17;;;;;;;6.77;4.43;;;20.70;93.40;;;;;;20925867;28;20327;-62
